createdAt,value
2022-10-11T00:00:01.113Z,12.2
2022-10-11T00:01:04.963Z,12.2
2022-10-11T00:02:01.155Z,12.2
2022-10-11T00:03:01.125Z,12.2
2022-10-11T00:04:01.338Z,12.2
2022-10-11T00:05:01.840Z,12.2
2022-10-11T00:06:08.476Z,12.1
2022-10-11T00:07:01.193Z,12.1
2022-10-11T00:08:00.938Z,12.1
2022-10-11T00:09:01.161Z,12.1
2022-10-11T00:10:01.470Z,12.1
2022-10-11T00:11:12.586Z,12.1
2022-10-11T00:12:02.586Z,12.1
2022-10-11T00:13:01.758Z,12.1
2022-10-11T00:14:02.017Z,12.1
2022-10-11T00:15:02.039Z,12.1
2022-10-11T00:16:14.051Z,12.1
2022-10-11T00:17:01.315Z,12.1
2022-10-11T00:18:05.353Z,12.1
2022-10-11T00:19:02.387Z,12.1
2022-10-11T00:20:01.192Z,12.1
2022-10-11T00:21:01.140Z,12.1
2022-10-11T00:22:01.046Z,12.1
2022-10-11T00:23:01.173Z,12.2
2022-10-11T00:24:01.057Z,12.2
2022-10-11T00:25:01.051Z,12.1
2022-10-11T00:26:01.119Z,12.2
2022-10-11T00:27:01.088Z,12.1
2022-10-11T00:28:01.083Z,12.2
2022-10-11T00:29:01.337Z,12.1
2022-10-11T00:30:01.966Z,12.2
2022-10-11T00:31:02.370Z,12.1
2022-10-11T00:32:01.125Z,12.2
2022-10-11T00:33:01.113Z,12.1
2022-10-11T00:34:01.698Z,12.1
2022-10-11T00:35:01.711Z,12.2
2022-10-11T00:36:01.590Z,12.1
2022-10-11T00:37:01.165Z,12.1
2022-10-11T00:38:01.266Z,12.1
2022-10-11T00:39:01.434Z,12.1
2022-10-11T00:40:01.540Z,12.1
2022-10-11T00:41:01.174Z,12.1
2022-10-11T00:42:01.044Z,12.1
2022-10-11T00:43:01.093Z,12.1
2022-10-11T00:44:01.087Z,12.1
2022-10-11T00:45:01.052Z,12.1
2022-10-11T00:46:01.329Z,12.1
2022-10-11T00:47:02.133Z,12.1
2022-10-11T00:48:01.152Z,12.1
2022-10-11T00:49:01.132Z,12.1
2022-10-11T00:50:04.143Z,12.1
2022-10-11T00:51:01.467Z,12.1
2022-10-11T00:52:01.320Z,12.1
2022-10-11T00:53:02.571Z,12.1
2022-10-11T00:54:02.502Z,12.1
2022-10-11T00:55:01.443Z,12.1
2022-10-11T00:56:03.160Z,12.1
2022-10-11T00:57:01.073Z,12.1
2022-10-11T00:58:01.707Z,12.1
2022-10-11T00:59:01.057Z,12.1
2022-10-11T01:00:01.049Z,12.1
2022-10-11T01:01:01.079Z,12.1
2022-10-11T01:02:01.963Z,12.1
2022-10-11T01:03:02.438Z,12.1
2022-10-11T01:04:01.165Z,12.1
2022-10-11T01:05:25.182Z,12.1
2022-10-11T01:06:01.406Z,12.1
2022-10-11T01:07:01.116Z,12.1
2022-10-11T01:08:01.126Z,12.1
2022-10-11T01:09:01.710Z,12.1
2022-10-11T01:10:01.103Z,12.1
2022-10-11T01:11:01.431Z,12.1
2022-10-11T01:12:01.893Z,12.1
2022-10-11T01:13:01.065Z,12.1
2022-10-11T01:14:01.065Z,12.1
2022-10-11T01:15:01.799Z,12
2022-10-11T01:16:01.409Z,12
2022-10-11T01:17:01.234Z,12
2022-10-11T01:18:01.475Z,12
2022-10-11T01:19:02.720Z,12
2022-10-11T01:20:02.332Z,12
2022-10-11T01:21:03.119Z,12
2022-10-11T01:22:01.159Z,12
2022-10-11T01:23:01.480Z,12
2022-10-11T01:24:07.472Z,12
2022-10-11T01:25:08.509Z,12
2022-10-11T01:26:00.122Z,12
2022-10-11T01:26:59.711Z,12
2022-10-11T01:28:01.906Z,12
2022-10-11T01:29:01.760Z,12
2022-10-11T01:30:04.036Z,12
2022-10-11T01:31:01.729Z,12
2022-10-11T01:32:01.368Z,12
2022-10-11T01:33:02.168Z,12
2022-10-11T01:34:01.286Z,12
2022-10-11T01:35:02.333Z,12
2022-10-11T01:36:02.416Z,12
2022-10-11T01:37:04.898Z,12
2022-10-11T01:38:01.233Z,12
2022-10-11T01:39:00.526Z,12
2022-10-11T01:40:00.178Z,12
2022-10-11T01:40:59.795Z,11.9
2022-10-11T01:42:07.998Z,11.9
2022-10-11T01:43:01.454Z,11.9
2022-10-11T01:44:01.049Z,11.9
2022-10-11T01:45:01.059Z,11.9
2022-10-11T01:46:01.307Z,11.9
2022-10-11T01:47:11.518Z,11.9
2022-10-11T01:48:01.051Z,11.9
2022-10-11T01:49:01.367Z,11.8
2022-10-11T01:50:02.037Z,11.8
2022-10-11T01:51:05.079Z,11.8
2022-10-11T01:52:13.935Z,11.8
2022-10-11T01:53:01.122Z,11.8
2022-10-11T01:54:01.187Z,11.8
2022-10-11T01:55:09.533Z,11.8
2022-10-11T01:56:04.175Z,11.8
2022-10-11T01:57:16.697Z,11.8
2022-10-11T01:58:00.837Z,11.8
2022-10-11T01:59:00.556Z,11.8
2022-10-11T02:00:00.235Z,11.8
2022-10-11T02:00:59.988Z,11.8
2022-10-11T02:01:59.724Z,11.8
2022-10-11T02:03:01.743Z,11.8
2022-10-11T02:04:01.804Z,11.8
2022-10-11T02:05:01.792Z,11.8
2022-10-11T02:06:01.323Z,11.8
2022-10-11T02:07:02.111Z,11.8
2022-10-11T02:08:02.229Z,11.8
2022-10-11T02:09:04.467Z,11.8
2022-10-11T02:10:01.133Z,11.8
2022-10-11T02:11:01.127Z,11.8
2022-10-11T02:12:00.520Z,11.8
2022-10-11T02:13:00.223Z,11.7
2022-10-11T02:14:00.382Z,11.8
2022-10-11T02:15:00.013Z,11.8
2022-10-11T02:15:59.561Z,11.7
2022-10-11T02:17:01.138Z,11.7
2022-10-11T02:18:01.057Z,11.7
2022-10-11T02:19:01.061Z,11.7
2022-10-11T02:20:01.083Z,11.7
2022-10-11T02:21:01.101Z,11.7
2022-10-11T02:22:01.132Z,11.7
2022-10-11T02:23:01.481Z,11.7
2022-10-11T02:24:01.814Z,11.7
2022-10-11T02:25:01.245Z,11.7
2022-10-11T02:26:00.901Z,11.6
2022-10-11T02:27:01.062Z,11.6
2022-10-11T02:28:01.982Z,11.6
2022-10-11T02:29:01.468Z,11.6
2022-10-11T02:30:01.207Z,11.6
2022-10-11T02:31:01.276Z,11.6
2022-10-11T02:32:01.196Z,11.6
2022-10-11T02:33:01.104Z,11.6
2022-10-11T02:34:01.083Z,11.6
2022-10-11T02:35:01.083Z,11.6
2022-10-11T02:36:01.160Z,11.6
2022-10-11T02:37:01.906Z,11.6
2022-10-11T02:38:01.478Z,11.6
2022-10-11T02:39:01.508Z,11.6
2022-10-11T02:40:01.225Z,11.6
2022-10-11T02:41:01.982Z,11.6
2022-10-11T02:42:01.152Z,11.6
2022-10-11T02:43:01.053Z,11.6
2022-10-11T02:44:01.110Z,11.6
2022-10-11T02:45:01.195Z,11.5
2022-10-11T02:46:01.641Z,11.5
2022-10-11T02:47:01.160Z,11.5
2022-10-11T02:48:01.686Z,11.5
2022-10-11T02:49:00.851Z,11.5
2022-10-11T02:50:00.442Z,11.5
2022-10-11T02:51:00.051Z,11.5
2022-10-11T02:51:59.646Z,11.4
2022-10-11T02:53:01.701Z,11.4
2022-10-11T02:54:02.516Z,11.4
2022-10-11T02:55:01.330Z,11.3
2022-10-11T02:56:01.375Z,11.3
2022-10-11T02:57:02.222Z,11.3
2022-10-11T02:58:02.184Z,11.3
2022-10-11T02:59:01.870Z,11.3
2022-10-11T03:00:01.071Z,11.3
2022-10-11T03:01:01.073Z,11.3
2022-10-11T03:02:01.190Z,11.3
2022-10-11T03:03:01.158Z,11.3
2022-10-11T03:04:01.103Z,11.3
2022-10-11T03:05:01.550Z,11.3
2022-10-11T03:06:01.874Z,11.3
2022-10-11T03:07:01.475Z,11.3
2022-10-11T03:08:01.204Z,11.3
2022-10-11T03:09:01.874Z,11.3
2022-10-11T03:10:01.058Z,11.3
2022-10-11T03:11:01.131Z,11.2
2022-10-11T03:12:01.113Z,11.2
2022-10-11T03:13:01.024Z,11.2
2022-10-11T03:14:01.542Z,11.2
2022-10-11T03:15:01.135Z,11.2
2022-10-11T03:16:03.711Z,11.2
2022-10-11T03:17:23.756Z,11.2
2022-10-11T03:18:03.546Z,11.2
2022-10-11T03:19:01.702Z,11.1
2022-10-11T03:20:01.107Z,11.1
2022-10-11T03:21:01.196Z,11.1
2022-10-11T03:22:01.219Z,11.1
2022-10-11T03:23:06.741Z,11.1
2022-10-11T03:24:01.087Z,11.1
2022-10-11T03:25:04.007Z,11.1
2022-10-11T03:26:02.028Z,11.1
2022-10-11T03:27:02.481Z,11.1
2022-10-11T03:28:09.458Z,11.1
2022-10-11T03:29:01.689Z,11.1
2022-10-11T03:30:01.220Z,11.1
2022-10-11T03:31:01.129Z,11.1
2022-10-11T03:32:01.186Z,11.1
2022-10-11T03:33:10.944Z,11.1
2022-10-11T03:34:01.574Z,11
2022-10-11T03:35:01.050Z,11
2022-10-11T03:36:01.074Z,11
2022-10-11T03:37:01.066Z,11
2022-10-11T03:38:15.121Z,11
2022-10-11T03:39:01.053Z,11
2022-10-11T03:40:01.213Z,11
2022-10-11T03:41:01.487Z,11
2022-10-11T03:42:01.278Z,11
2022-10-11T03:43:16.779Z,11
2022-10-11T03:44:02.270Z,11
2022-10-11T03:45:01.715Z,11
2022-10-11T03:46:02.125Z,11
2022-10-11T03:47:01.132Z,11
2022-10-11T03:48:01.170Z,11
2022-10-11T03:49:01.136Z,10.9
2022-10-11T03:50:01.037Z,10.9
2022-10-11T03:51:01.169Z,10.9
2022-10-11T03:52:01.459Z,10.9
2022-10-11T03:53:01.182Z,10.9
2022-10-11T03:54:01.070Z,10.9
2022-10-11T03:55:01.015Z,10.9
2022-10-11T03:56:05.914Z,10.8
2022-10-11T03:57:01.753Z,10.8
2022-10-11T03:58:01.136Z,10.8
2022-10-11T03:59:01.208Z,10.8
2022-10-11T04:00:01.212Z,10.8
2022-10-11T04:01:01.219Z,10.8
2022-10-11T04:02:01.383Z,10.8
2022-10-11T04:03:01.501Z,10.8
2022-10-11T04:04:01.144Z,10.7
2022-10-11T04:05:01.800Z,10.7
2022-10-11T04:06:01.230Z,10.7
2022-10-11T04:07:02.398Z,10.7
2022-10-11T04:08:01.975Z,10.7
2022-10-11T04:09:00.975Z,10.7
2022-10-11T04:10:03.565Z,10.7
2022-10-11T04:11:01.145Z,10.7
2022-10-11T04:12:01.381Z,10.7
2022-10-11T04:13:01.487Z,10.6
2022-10-11T04:14:01.786Z,10.6
2022-10-11T04:15:01.134Z,10.6
2022-10-11T04:16:01.285Z,10.6
2022-10-11T04:17:01.160Z,10.6
2022-10-11T04:18:01.144Z,10.6
2022-10-11T04:19:00.760Z,10.6
2022-10-11T04:20:00.723Z,10.6
2022-10-11T04:21:00.754Z,10.6
2022-10-11T04:22:00.402Z,10.6
2022-10-11T04:23:00.260Z,10.6
2022-10-11T04:23:59.880Z,10.6
2022-10-11T04:24:59.525Z,10.6
2022-10-11T04:26:02.155Z,10.5
2022-10-11T04:27:01.200Z,10.6
2022-10-11T04:28:01.389Z,10.5
2022-10-11T04:29:01.418Z,10.5
2022-10-11T04:30:01.092Z,10.5
2022-10-11T04:31:01.109Z,10.5
2022-10-11T04:32:01.166Z,10.5
2022-10-11T04:33:01.394Z,10.5
2022-10-11T04:34:01.458Z,10.5
2022-10-11T04:35:01.389Z,10.5
2022-10-11T04:36:03.061Z,10.5
2022-10-11T04:37:01.711Z,10.5
2022-10-11T04:38:01.174Z,10.5
2022-10-11T04:39:02.253Z,10.5
2022-10-11T04:40:01.784Z,10.5
2022-10-11T04:41:01.875Z,10.5
2022-10-11T04:42:01.076Z,10.5
2022-10-11T04:43:01.092Z,10.5
2022-10-11T04:44:01.102Z,10.4
2022-10-11T04:45:01.090Z,10.5
2022-10-11T04:46:01.497Z,10.4
2022-10-11T04:47:01.089Z,10.4
2022-10-11T04:48:01.037Z,10.4
2022-10-11T04:49:01.110Z,10.4
2022-10-11T04:50:01.024Z,10.4
2022-10-11T04:51:01.125Z,10.3
2022-10-11T04:52:01.134Z,10.3
2022-10-11T04:53:00.820Z,10.3
2022-10-11T04:54:00.426Z,10.3
2022-10-11T04:55:00.008Z,10.3
2022-10-11T04:55:59.611Z,10.3
2022-10-11T04:57:02.121Z,10.3
2022-10-11T04:58:01.427Z,10.3
2022-10-11T04:59:01.135Z,10.2
2022-10-11T05:00:01.873Z,10.2
2022-10-11T05:01:01.242Z,10.2
2022-10-11T05:02:02.034Z,10.2
2022-10-11T05:03:01.052Z,10.2
2022-10-11T05:04:00.913Z,10.2
2022-10-11T05:05:01.158Z,10.2
2022-10-11T05:06:05.446Z,10.2
2022-10-11T05:07:01.040Z,10.2
2022-10-11T05:08:01.040Z,10.2
2022-10-11T05:09:04.157Z,10.2
2022-10-11T05:10:01.315Z,10.1
2022-10-11T05:11:01.869Z,10.1
2022-10-11T05:12:01.053Z,10.1
2022-10-11T05:13:00.688Z,10.1
2022-10-11T05:14:05.101Z,10.1
2022-10-11T05:15:01.273Z,10.1
2022-10-11T05:16:01.293Z,10.1
2022-10-11T05:17:01.185Z,10.1
2022-10-11T05:18:01.474Z,10.1
2022-10-11T05:19:08.132Z,10.1
2022-10-11T05:20:01.075Z,10.1
2022-10-11T05:21:04.444Z,10.1
2022-10-11T05:22:01.515Z,10.1
2022-10-11T05:23:02.139Z,10.1
2022-10-11T05:24:11.976Z,10
2022-10-11T05:25:01.255Z,10
2022-10-11T05:26:01.377Z,10
2022-10-11T05:27:03.510Z,10
2022-10-11T05:28:01.832Z,10
2022-10-11T05:29:14.761Z,10
2022-10-11T05:30:01.301Z,10
2022-10-11T05:31:01.343Z,10
2022-10-11T05:32:01.369Z,10
2022-10-11T05:33:00.961Z,10
2022-10-11T05:34:16.778Z,10
2022-10-11T05:35:04.194Z,10
2022-10-11T05:36:02.328Z,10
2022-10-11T05:37:01.793Z,10
2022-10-11T05:38:01.136Z,10
2022-10-11T05:39:01.144Z,10
2022-10-11T05:40:01.152Z,10
2022-10-11T05:41:01.143Z,10
2022-10-11T05:42:01.137Z,10
2022-10-11T05:43:01.061Z,10
2022-10-11T05:44:01.056Z,10
2022-10-11T05:45:01.067Z,10
2022-10-11T05:46:02.118Z,10
2022-10-11T05:47:01.762Z,10
2022-10-11T05:48:02.754Z,10
2022-10-11T05:49:01.792Z,10
2022-10-11T05:50:01.106Z,10
2022-10-11T05:51:01.046Z,10
2022-10-11T05:52:01.185Z,10
2022-10-11T05:53:01.694Z,10
2022-10-11T05:54:01.437Z,10
2022-10-11T05:55:01.042Z,10
2022-10-11T05:56:01.088Z,10
2022-10-11T05:57:01.042Z,10.1
2022-10-11T05:58:01.146Z,10.1
2022-10-11T05:59:02.578Z,10.1
2022-10-11T06:00:01.075Z,10.1
2022-10-11T06:01:01.268Z,10.1
2022-10-11T06:02:01.765Z,10.1
2022-10-11T06:03:01.204Z,10.1
2022-10-11T06:04:01.136Z,10.1
2022-10-11T06:05:01.074Z,10.1
2022-10-11T06:06:00.774Z,10.1
2022-10-11T06:07:00.493Z,10.1
2022-10-11T06:08:00.174Z,10.1
2022-10-11T06:08:59.787Z,10.1
2022-10-11T06:10:01.381Z,10.1
2022-10-11T06:11:02.103Z,10.1
2022-10-11T06:12:02.185Z,10.2
2022-10-11T06:13:01.042Z,10.1
2022-10-11T06:14:00.553Z,10.1
2022-10-11T06:15:00.223Z,10.1
2022-10-11T06:15:59.872Z,10.1
2022-10-11T06:16:59.494Z,10.2
2022-10-11T06:18:01.141Z,10.1
2022-10-11T06:19:01.107Z,10.2
2022-10-11T06:20:00.900Z,10.2
2022-10-11T06:21:01.474Z,10.2
2022-10-11T06:22:01.037Z,10.2
2022-10-11T06:23:01.132Z,10.1
2022-10-11T06:24:01.740Z,10.1
2022-10-11T06:25:01.205Z,10.1
2022-10-11T06:26:02.579Z,10.1
2022-10-11T06:27:01.956Z,10.1
2022-10-11T06:28:01.449Z,10.2
2022-10-11T06:29:01.579Z,10.2
2022-10-11T06:30:01.348Z,10.2
2022-10-11T06:31:01.352Z,10.3
2022-10-11T06:32:01.078Z,10.3
2022-10-11T06:33:04.622Z,10.3
2022-10-11T06:34:02.597Z,10.3
2022-10-11T06:35:01.807Z,10.3
2022-10-11T06:36:01.833Z,10.4
2022-10-11T06:37:01.227Z,10.4
2022-10-11T06:38:01.101Z,10.4
2022-10-11T06:39:01.067Z,10.4
2022-10-11T06:40:01.152Z,10.5
2022-10-11T06:41:02.052Z,10.5
2022-10-11T06:42:01.008Z,10.5
2022-10-11T06:43:00.707Z,10.5
2022-10-11T06:44:00.701Z,10.5
2022-10-11T06:45:00.428Z,10.5
2022-10-11T06:46:00.143Z,10.5
2022-10-11T06:46:59.744Z,10.5
2022-10-11T06:48:01.360Z,10.6
2022-10-11T06:49:02.064Z,10.6
2022-10-11T06:50:01.060Z,10.6
2022-10-11T06:51:01.199Z,10.6
2022-10-11T06:52:01.893Z,10.6
2022-10-11T06:53:01.904Z,10.6
2022-10-11T06:54:01.097Z,10.6
2022-10-11T06:55:01.315Z,10.6
2022-10-11T06:56:01.591Z,10.6
2022-10-11T06:57:01.105Z,10.6
2022-10-11T06:58:01.059Z,10.6
2022-10-11T06:59:01.043Z,10.6
2022-10-11T07:00:03.490Z,10.7
2022-10-11T07:01:01.849Z,10.6
2022-10-11T07:02:01.052Z,10.6
2022-10-11T07:03:01.061Z,10.6
2022-10-11T07:04:01.069Z,10.7
2022-10-11T07:05:05.622Z,10.7
2022-10-11T07:06:02.571Z,10.7
2022-10-11T07:07:01.707Z,10.8
2022-10-11T07:08:01.448Z,10.8
2022-10-11T07:09:02.526Z,10.8
2022-10-11T07:10:07.637Z,10.8
2022-10-11T07:11:01.314Z,10.8
2022-10-11T07:12:01.185Z,10.8
2022-10-11T07:13:01.132Z,10.8
2022-10-11T07:14:01.467Z,10.8
2022-10-11T07:15:10.128Z,10.8
2022-10-11T07:16:01.103Z,10.8
2022-10-11T07:17:01.365Z,10.8
2022-10-11T07:18:01.367Z,10.8
2022-10-11T07:19:01.545Z,10.8
2022-10-11T07:20:13.142Z,10.8
2022-10-11T07:21:01.744Z,10.8
2022-10-11T07:22:01.061Z,10.8
2022-10-11T07:23:01.085Z,10.8
2022-10-11T07:24:01.151Z,10.8
2022-10-11T07:25:14.733Z,10.8
2022-10-11T07:26:01.045Z,10.8
2022-10-11T07:27:01.101Z,10.8
2022-10-11T07:28:01.117Z,10.9
2022-10-11T07:29:01.226Z,10.9
2022-10-11T07:30:16.473Z,10.9
2022-10-11T07:31:01.386Z,10.9
2022-10-11T07:32:01.058Z,10.9
2022-10-11T07:33:01.385Z,10.9
2022-10-11T07:34:02.135Z,11
2022-10-11T07:35:02.081Z,11
2022-10-11T07:36:01.170Z,11
2022-10-11T07:37:01.347Z,11
2022-10-11T07:38:01.372Z,11
2022-10-11T07:39:02.657Z,11
2022-10-11T07:40:02.096Z,11
2022-10-11T07:41:01.902Z,11
2022-10-11T07:42:01.937Z,11
2022-10-11T07:43:01.058Z,11
2022-10-11T07:44:01.138Z,11
2022-10-11T07:45:01.054Z,11.1
2022-10-11T07:46:01.370Z,11.1
2022-10-11T07:47:11.228Z,11.1
2022-10-11T07:48:02.159Z,11.1
2022-10-11T07:49:01.236Z,11.1
2022-10-11T07:50:01.137Z,11.2
2022-10-11T07:51:01.157Z,11.2
2022-10-11T07:52:01.445Z,11.2
2022-10-11T07:53:01.122Z,11.2
2022-10-11T07:54:06.104Z,11.3
2022-10-11T07:55:01.067Z,11.3
2022-10-11T07:56:01.228Z,11.3
2022-10-11T07:57:01.091Z,11.3
2022-10-11T07:58:01.098Z,11.3
2022-10-11T07:59:01.093Z,11.3
2022-10-11T08:00:01.103Z,11.3
2022-10-11T08:01:01.179Z,11.4
2022-10-11T08:02:01.227Z,11.4
2022-10-11T08:03:01.889Z,11.5
2022-10-11T08:04:02.305Z,11.5
2022-10-11T08:05:00.775Z,11.5
2022-10-11T08:06:00.412Z,11.5
2022-10-11T08:07:00.063Z,11.5
2022-10-11T08:07:59.717Z,11.5
2022-10-11T08:09:01.350Z,11.5
2022-10-11T08:10:02.604Z,11.5
2022-10-11T08:11:02.608Z,11.5
2022-10-11T08:12:01.103Z,11.6
2022-10-11T08:13:04.431Z,11.6
2022-10-11T08:14:01.638Z,11.6
2022-10-11T08:15:01.222Z,11.6
2022-10-11T08:16:02.112Z,11.6
2022-10-11T08:17:01.871Z,11.6
2022-10-11T08:18:01.103Z,11.6
2022-10-11T08:19:01.084Z,11.6
2022-10-11T08:20:01.501Z,11.6
2022-10-11T08:21:01.570Z,11.6
2022-10-11T08:22:00.725Z,11.7
2022-10-11T08:23:00.373Z,11.7
2022-10-11T08:23:59.971Z,11.7
2022-10-11T08:24:59.603Z,11.8
2022-10-11T08:26:01.733Z,11.8
2022-10-11T08:27:01.089Z,11.8
2022-10-11T08:28:01.097Z,11.8
2022-10-11T08:29:01.357Z,11.8
2022-10-11T08:30:01.093Z,11.8
2022-10-11T08:31:01.106Z,11.8
2022-10-11T08:32:01.096Z,11.8
2022-10-11T08:33:04.987Z,11.8
2022-10-11T08:34:02.671Z,11.8
2022-10-11T08:35:02.110Z,11.9
2022-10-11T08:36:02.471Z,11.9
2022-10-11T08:37:02.049Z,11.8
2022-10-11T08:38:01.177Z,11.8
2022-10-11T08:39:01.156Z,11.8
2022-10-11T08:40:01.160Z,11.8
2022-10-11T08:41:01.109Z,11.8
2022-10-11T08:42:01.067Z,11.9
2022-10-11T08:43:01.090Z,11.9
2022-10-11T08:44:01.083Z,12
2022-10-11T08:45:16.441Z,12
2022-10-11T08:46:04.464Z,12
2022-10-11T08:47:01.601Z,12
2022-10-11T08:48:01.240Z,12
2022-10-11T08:49:01.973Z,12
2022-10-11T08:50:01.812Z,12
2022-10-11T08:51:05.869Z,12
2022-10-11T08:52:02.671Z,12
2022-10-11T08:53:01.540Z,12
2022-10-11T08:54:06.360Z,12.1
2022-10-11T08:55:01.773Z,12.1
2022-10-11T08:56:09.722Z,12.1
2022-10-11T08:57:01.136Z,12.1
2022-10-11T08:58:01.720Z,12.1
2022-10-11T08:59:00.869Z,12.1
2022-10-11T09:00:00.564Z,12.1
2022-10-11T09:01:10.639Z,12.1
2022-10-11T09:02:02.218Z,12.2
2022-10-11T09:03:08.669Z,12.2
2022-10-11T09:04:01.904Z,12.3
2022-10-11T09:05:02.773Z,12.3
2022-10-11T09:06:13.886Z,12.3
2022-10-11T09:07:04.936Z,12.3
2022-10-11T09:08:01.051Z,12.4
2022-10-11T09:09:01.428Z,12.4
2022-10-11T09:10:01.157Z,12.5
2022-10-11T09:11:01.146Z,12.5
2022-10-11T09:12:01.152Z,12.5
2022-10-11T09:13:01.068Z,12.5
2022-10-11T09:14:00.708Z,12.5
2022-10-11T09:15:00.340Z,12.5
2022-10-11T09:15:59.939Z,12.6
2022-10-11T09:16:59.531Z,12.6
2022-10-11T09:18:02.211Z,12.6
2022-10-11T09:19:02.166Z,12.6
2022-10-11T09:20:01.100Z,12.6
2022-10-11T09:21:01.136Z,12.6
2022-10-11T09:22:01.212Z,12.7
2022-10-11T09:23:01.798Z,12.7
2022-10-11T09:24:01.052Z,12.7
2022-10-11T09:25:01.259Z,12.8
2022-10-11T09:26:01.172Z,12.8
2022-10-11T09:27:01.423Z,12.8
2022-10-11T09:28:03.248Z,12.8
2022-10-11T09:29:01.671Z,12.8
2022-10-11T09:30:01.068Z,12.8
2022-10-11T09:31:01.050Z,12.9
2022-10-11T09:32:01.241Z,12.9
2022-10-11T09:33:01.477Z,12.9
2022-10-11T09:34:00.671Z,12.9
2022-10-11T09:35:00.307Z,13
2022-10-11T09:35:59.887Z,13
2022-10-11T09:36:59.445Z,13
2022-10-11T09:38:01.059Z,13
2022-10-11T09:39:06.351Z,13
2022-10-11T09:40:01.147Z,13
2022-10-11T09:41:01.138Z,13.1
2022-10-11T09:42:01.553Z,13.1
2022-10-11T09:43:01.166Z,13.1
2022-10-11T09:44:01.146Z,13.1
2022-10-11T09:45:01.051Z,13.1
2022-10-11T09:46:01.069Z,13.1
2022-10-11T09:47:01.235Z,13.1
2022-10-11T09:48:01.124Z,13.1
2022-10-11T09:49:01.126Z,13.1
2022-10-11T09:50:01.041Z,13.1
2022-10-11T09:51:01.496Z,13.2
2022-10-11T09:52:01.110Z,13.2
2022-10-11T09:53:01.117Z,13.3
2022-10-11T09:54:00.790Z,13.3
2022-10-11T09:55:01.119Z,13.3
2022-10-11T09:56:01.125Z,13.2
2022-10-11T09:57:01.217Z,13.2
2022-10-11T09:58:01.666Z,13.3
2022-10-11T09:59:01.059Z,13.3
2022-10-11T10:00:01.145Z,13.3
2022-10-11T10:01:07.345Z,13.3
2022-10-11T10:02:01.895Z,13.3
2022-10-11T10:03:01.781Z,13.3
2022-10-11T10:04:01.985Z,13.3
2022-10-11T10:05:01.792Z,13.3
2022-10-11T10:06:02.487Z,13.3
2022-10-11T10:07:01.881Z,13.3
2022-10-11T10:08:04.823Z,13.3
2022-10-11T10:09:01.128Z,13.3
2022-10-11T10:10:01.119Z,13.4
2022-10-11T10:11:01.144Z,13.5
2022-10-11T10:12:01.528Z,13.5
2022-10-11T10:13:01.360Z,13.5
2022-10-11T10:14:01.080Z,13.6
2022-10-11T10:15:01.057Z,13.6
2022-10-11T10:16:01.151Z,13.6
2022-10-11T10:17:01.069Z,13.7
2022-10-11T10:18:01.075Z,13.7
2022-10-11T10:19:03.784Z,13.8
2022-10-11T10:20:01.289Z,13.8
2022-10-11T10:21:01.324Z,13.8
2022-10-11T10:22:01.848Z,13.8
2022-10-11T10:23:02.021Z,13.9
2022-10-11T10:24:01.423Z,13.9
2022-10-11T10:25:01.120Z,14
2022-10-11T10:26:01.147Z,14
2022-10-11T10:27:04.210Z,14
2022-10-11T10:28:01.152Z,14.1
2022-10-11T10:29:01.248Z,14.1
2022-10-11T10:30:01.140Z,14.1
2022-10-11T10:31:01.481Z,14.1
2022-10-11T10:32:14.214Z,14.1
2022-10-11T10:33:01.169Z,14.2
2022-10-11T10:34:00.850Z,14.2
2022-10-11T10:35:00.446Z,14.2
2022-10-11T10:36:00.027Z,14.3
2022-10-11T10:37:08.967Z,14.3
2022-10-11T10:38:01.773Z,14.3
2022-10-11T10:39:01.094Z,14.4
2022-10-11T10:40:01.099Z,14.4
2022-10-11T10:41:01.046Z,14.5
2022-10-11T10:42:11.662Z,14.5
2022-10-11T10:43:01.079Z,14.5
2022-10-11T10:44:01.133Z,14.5
2022-10-11T10:45:01.156Z,14.5
2022-10-11T10:46:01.067Z,14.5
2022-10-11T10:47:15.426Z,14.6
2022-10-11T10:48:01.452Z,14.6
2022-10-11T10:49:28.753Z,14.6
2022-10-11T10:50:01.085Z,14.6
2022-10-11T10:51:01.043Z,14.7
2022-10-11T10:52:01.074Z,14.7
2022-10-11T10:53:01.701Z,14.8
2022-10-11T10:54:01.483Z,14.8
2022-10-11T10:55:01.705Z,14.8
2022-10-11T10:56:01.124Z,14.8
2022-10-11T10:57:01.490Z,14.9
2022-10-11T10:58:01.125Z,14.9
2022-10-11T10:59:01.132Z,15
2022-10-11T11:00:01.130Z,15
2022-10-11T11:01:02.567Z,15
2022-10-11T11:02:16.055Z,15
2022-10-11T11:03:01.428Z,15
2022-10-11T11:04:01.258Z,15
2022-10-11T11:05:01.454Z,14.9
2022-10-11T11:06:01.512Z,15
2022-10-11T11:07:01.428Z,15
2022-10-11T11:08:02.148Z,15
2022-10-11T11:09:03.021Z,15
2022-10-11T11:10:01.892Z,15
2022-10-11T11:11:00.797Z,15.1
2022-10-11T11:12:00.377Z,15.1
2022-10-11T11:13:00.003Z,15.1
2022-10-11T11:13:59.585Z,15.1
2022-10-11T11:15:01.275Z,15.1
2022-10-11T11:16:01.299Z,15.1
2022-10-11T11:17:01.306Z,15.1
2022-10-11T11:18:01.177Z,15.2
2022-10-11T11:19:01.183Z,15.2
2022-10-11T11:20:02.023Z,15.3
2022-10-11T11:21:01.155Z,15.3
2022-10-11T11:22:01.187Z,15.3
2022-10-11T11:23:01.094Z,15.3
2022-10-11T11:24:01.103Z,15.4
2022-10-11T11:25:01.659Z,15.4
2022-10-11T11:26:01.055Z,15.5
2022-10-11T11:27:01.090Z,15.5
2022-10-11T11:28:01.104Z,15.5
2022-10-11T11:29:01.065Z,15.5
2022-10-11T11:30:01.134Z,15.5
2022-10-11T11:31:00.801Z,15.6
2022-10-11T11:32:00.426Z,15.6
2022-10-11T11:33:00.117Z,15.6
2022-10-11T11:33:59.810Z,15.6
2022-10-11T11:35:01.580Z,15.5
2022-10-11T11:36:01.708Z,15.5
2022-10-11T11:37:01.069Z,15.5
2022-10-11T11:38:06.187Z,15.4
2022-10-11T11:39:01.056Z,15.3
2022-10-11T11:40:01.205Z,15.3
2022-10-11T11:41:01.480Z,15.2
2022-10-11T11:42:01.465Z,15.1
2022-10-11T11:43:01.064Z,15.1
2022-10-11T11:44:01.039Z,15.1
2022-10-11T11:45:01.040Z,15
2022-10-11T11:46:01.051Z,15
2022-10-11T11:47:01.118Z,14.9
2022-10-11T11:48:01.141Z,14.9
2022-10-11T11:49:01.143Z,14.8
2022-10-11T11:50:01.714Z,14.8
2022-10-11T11:51:01.138Z,14.8
2022-10-11T11:52:01.064Z,14.8
2022-10-11T11:53:01.056Z,14.8
2022-10-11T11:54:01.248Z,14.9
2022-10-11T11:55:04.001Z,14.9
2022-10-11T11:56:01.075Z,14.9
2022-10-11T11:57:01.084Z,14.8
2022-10-11T11:58:06.797Z,14.8
2022-10-11T11:59:01.055Z,14.8
2022-10-11T12:00:01.045Z,14.8
2022-10-11T12:01:01.062Z,14.8
2022-10-11T12:02:01.612Z,14.8
2022-10-11T12:03:01.349Z,14.8
2022-10-11T12:04:01.122Z,14.8
2022-10-11T12:05:01.129Z,14.8
2022-10-11T12:06:01.499Z,14.8
2022-10-11T12:07:15.350Z,14.9
2022-10-11T12:08:02.055Z,14.9
2022-10-11T12:09:01.142Z,14.9
2022-10-11T12:10:01.083Z,15
2022-10-11T12:11:01.062Z,15
2022-10-11T12:12:01.085Z,15
2022-10-11T12:13:03.414Z,15
2022-10-11T12:14:02.001Z,15.1
2022-10-11T12:15:01.200Z,15.1
2022-10-11T12:16:01.104Z,15.1
2022-10-11T12:17:01.105Z,15.1
2022-10-11T12:18:04.783Z,15.1
2022-10-11T12:19:01.415Z,15.2
2022-10-11T12:20:01.115Z,15.2
2022-10-11T12:21:01.519Z,15.2
2022-10-11T12:22:01.129Z,15.2
2022-10-11T12:23:07.905Z,15.2
2022-10-11T12:24:01.161Z,15.2
2022-10-11T12:25:01.071Z,15.3
2022-10-11T12:26:01.059Z,15.3
2022-10-11T12:27:01.068Z,15.3
2022-10-11T12:28:10.605Z,15.3
2022-10-11T12:29:01.466Z,15.3
2022-10-11T12:30:02.632Z,15.3
2022-10-11T12:31:01.090Z,15.3
2022-10-11T12:32:01.109Z,15.3
2022-10-11T12:33:13.683Z,15.3
2022-10-11T12:34:01.121Z,15.3
2022-10-11T12:35:01.114Z,15.3
2022-10-11T12:36:04.125Z,15.2
2022-10-11T12:37:04.590Z,15.2
2022-10-11T12:38:16.237Z,15.2
2022-10-11T12:39:02.201Z,15.1
2022-10-11T12:40:01.181Z,15.1
2022-10-11T12:41:01.060Z,15.1
2022-10-11T12:42:05.774Z,15.1
2022-10-11T12:43:01.076Z,15.1
2022-10-11T12:44:01.087Z,15.1
2022-10-11T12:45:01.785Z,15
2022-10-11T12:46:01.228Z,15
2022-10-11T12:47:01.098Z,15
2022-10-11T12:48:01.426Z,15
2022-10-11T12:49:01.212Z,15
2022-10-11T12:50:01.858Z,15
2022-10-11T12:51:03.230Z,14.9
2022-10-11T12:52:02.692Z,14.9
2022-10-11T12:53:01.618Z,14.9
2022-10-11T12:54:25.344Z,14.9
2022-10-11T12:55:01.441Z,14.8
2022-10-11T12:56:01.546Z,14.8
2022-10-11T12:57:01.447Z,14.8
2022-10-11T12:58:01.059Z,14.8
2022-10-11T12:59:01.065Z,14.8
2022-10-11T13:00:01.087Z,14.7
2022-10-11T13:01:01.224Z,14.8
2022-10-11T13:02:01.109Z,14.8
2022-10-11T13:03:01.095Z,14.7
2022-10-11T13:04:01.101Z,14.7
2022-10-11T13:05:01.130Z,14.7
2022-10-11T13:06:02.046Z,14.6
2022-10-11T13:07:05.867Z,14.6
2022-10-11T13:08:01.358Z,14.6
2022-10-11T13:09:01.130Z,14.6
2022-10-11T13:10:01.157Z,14.6
2022-10-11T13:11:01.165Z,14.6
2022-10-11T13:12:01.159Z,14.5
2022-10-11T13:13:01.771Z,14.5
2022-10-11T13:14:01.085Z,14.5
2022-10-11T13:15:01.422Z,14.5
2022-10-11T13:16:01.346Z,14.5
2022-10-11T13:17:01.380Z,14.5
2022-10-11T13:18:01.373Z,14.5
2022-10-11T13:19:01.565Z,14.4
2022-10-11T13:20:02.019Z,14.5
2022-10-11T13:21:01.150Z,14.4
2022-10-11T13:22:01.121Z,14.4
2022-10-11T13:23:01.123Z,14.4
2022-10-11T13:24:01.126Z,14.4
2022-10-11T13:25:01.041Z,14.4
2022-10-11T13:26:01.249Z,14.4